Time;durP1;ratioP1;P1;durP2;ratioP2;P2;SDS_P1;SDS_P2;PMS_P1;PMS_P2;Temp;Humidity;BMP_temperature;BMP_pressure;BME280_temperature;BME280_humidity;BME280_pressure;Samples;Min_cycle;Max_cycle;Signal;HPM_P1;HPM_P2
2022/01/14 00:01:59;;;;;;;10.15;5.03;;;20.60;52.00;;;;;;4993751;28;20066;-61
2022/01/14 00:04:24;;;;;;;10.20;5.50;;;20.60;52.00;;;;;;4996639;28;20049;-61
2022/01/14 00:06:50;;;;;;;10.70;5.28;;;20.60;52.00;;;;;;4997056;28;20414;-61
2022/01/14 00:09:16;;;;;;;9.70;5.22;;;20.60;52.00;;;;;;4994320;28;20396;-61
2022/01/14 00:11:47;;;;;;;10.52;5.90;;;20.60;51.90;;;;;;4996783;28;20089;-61
2022/01/14 00:16:42;;;;;;;8.65;5.43;;;20.60;51.90;;;;;;4995817;28;20050;-61
2022/01/14 00:19:07;;;;;;;10.10;5.53;;;20.60;51.90;;;;;;4996798;28;20038;-61
2022/01/14 00:21:36;;;;;;;10.55;5.60;;;20.50;51.80;;;;;;4996045;28;20050;-62
2022/01/14 00:32:12;;;;;;;11.32;5.65;;;20.50;51.80;;;;;;4995762;28;20050;-62
2022/01/14 00:34:37;;;;;;;9.23;4.88;;;20.50;51.70;;;;;;4996555;28;20042;-61
2022/01/14 00:37:03;;;;;;;9.93;5.57;;;20.40;51.70;;;;;;4996135;28;20068;-61
2022/01/14 00:39:29;;;;;;;9.55;5.80;;;20.40;51.70;;;;;;4995418;28;20048;-61
2022/01/14 00:41:54;;;;;;;12.00;5.95;;;20.40;51.70;;;;;;4996331;28;20046;-61
2022/01/14 00:44:20;;;;;;;10.40;5.85;;;20.40;51.70;;;;;;4995329;28;20088;-61
2022/01/14 00:46:46;;;;;;;10.18;5.70;;;20.40;51.60;;;;;;4994891;28;20405;-62
2022/01/14 00:49:12;;;;;;;9.65;5.43;;;20.40;51.70;;;;;;4995957;28;20050;-61
2022/01/14 00:51:38;;;;;;;10.82;5.45;;;20.40;51.70;;;;;;4994133;28;20058;-62
2022/01/14 00:54:04;;;;;;;10.68;6.28;;;20.40;51.70;;;;;;4995997;28;20101;-61
2022/01/14 00:59:14;;;;;;;10.30;6.00;;;20.40;51.60;;;;;;4995018;28;20086;-61
2022/01/14 01:01:50;;;;;;;10.38;5.50;;;20.30;51.60;;;;;;4996111;28;20050;-61
2022/01/14 01:04:27;;;;;;;9.95;5.45;;;20.30;51.60;;;;;;4995856;28;20061;-62
2022/01/14 01:06:53;;;;;;;10.27;5.73;;;20.30;51.60;;;;;;4995282;28;20039;-61
2022/01/14 01:09:21;;;;;;;9.90;5.82;;;20.30;51.70;;;;;;4994108;28;20100;-61
2022/01/14 01:11:52;;;;;;;9.15;5.32;;;20.30;51.60;;;;;;4994482;28;20150;-61
2022/01/14 01:14:26;;;;;;;9.73;5.30;;;20.30;51.60;;;;;;4993210;28;20050;-61
2022/01/14 01:16:52;;;;;;;9.32;5.35;;;20.30;51.60;;;;;;4995555;28;20401;-61
2022/01/14 01:19:18;;;;;;;9.45;5.40;;;20.30;51.60;;;;;;4994580;28;20478;-62
2022/01/14 01:21:43;;;;;;;9.95;5.35;;;20.20;51.50;;;;;;4995509;28;20042;-61
2022/01/14 01:24:10;;;;;;;9.10;5.13;;;20.20;51.60;;;;;;4995313;28;20101;-61
2022/01/14 01:26:38;;;;;;;9.30;5.30;;;20.20;51.60;;;;;;4994559;28;20053;-61
2022/01/14 01:31:40;;;;;;;9.07;5.32;;;20.20;51.50;;;;;;4995142;28;20050;-61
2022/01/14 01:34:07;;;;;;;8.38;5.07;;;20.20;51.50;;;;;;4994494;28;20427;-61
2022/01/14 01:36:33;;;;;;;9.23;5.10;;;20.20;51.50;;;;;;4994832;28;20050;-62
2022/01/14 01:38:58;;;;;;;9.48;5.10;;;20.20;51.50;;;;;;4995060;28;20398;-61
2022/01/14 01:41:24;;;;;;;9.07;4.95;;;20.10;51.40;;;;;;4993952;28;20046;-62
2022/01/14 01:43:53;;;;;;;9.18;5.38;;;20.20;51.40;;;;;;4993804;28;20042;-61
2022/01/14 01:46:20;;;;;;;11.63;5.38;;;20.10;51.30;;;;;;4993288;28;20405;-61
2022/01/14 01:48:55;;;;;;;8.38;4.57;;;20.10;51.30;;;;;;4994493;28;20077;-61
2022/01/14 01:51:20;;;;;;;8.82;4.80;;;20.10;51.30;;;;;;4994414;28;20531;-62
2022/01/14 01:53:46;;;;;;;9.10;5.10;;;20.10;51.30;;;;;;4994812;28;20077;-62
2022/01/14 01:56:13;;;;;;;9.30;5.10;;;20.10;51.30;;;;;;4993912;28;20068;-62
2022/01/14 01:58:38;;;;;;;10.20;5.05;;;20.10;51.50;;;;;;4994777;28;20085;-62
2022/01/14 02:01:04;;;;;;;8.07;4.65;;;20.10;51.40;;;;;;4994739;28;20077;-61
2022/01/14 02:03:31;;;;;;;9.23;4.90;;;20.10;51.40;;;;;;4992261;28;20536;-62
2022/01/14 02:05:57;;;;;;;7.80;4.20;;;20.10;51.30;;;;;;4994923;28;20042;-62
2022/01/14 02:08:22;;;;;;;8.52;4.57;;;20.00;51.30;;;;;;4994378;28;20092;-61
2022/01/14 02:10:48;;;;;;;7.90;4.47;;;20.10;51.30;;;;;;4993846;28;20068;-61
2022/01/14 02:13:13;;;;;;;9.90;5.00;;;20.10;51.30;;;;;;4993108;28;20497;-61
2022/01/14 02:15:48;;;;;;;7.40;4.05;;;20.00;51.30;;;;;;4993471;28;20050;-61
2022/01/14 02:23:51;;;;;;;7.32;4.25;;;20.00;51.30;;;;;;4993729;28;20051;-61
2022/01/14 02:26:17;;;;;;;8.80;4.63;;;20.00;51.30;;;;;;4993874;28;20052;-62
2022/01/14 02:28:43;;;;;;;8.88;4.65;;;20.00;51.20;;;;;;4994375;28;20042;-62
2022/01/14 02:31:08;;;;;;;7.35;4.38;;;20.00;51.20;;;;;;4993307;28;20053;-61
2022/01/14 02:33:34;;;;;;;6.70;3.97;;;20.00;51.20;;;;;;4993971;28;20050;-62
2022/01/14 02:35:59;;;;;;;7.15;4.13;;;20.00;51.20;;;;;;4994253;28;20049;-61
2022/01/14 02:38:25;;;;;;;9.20;4.03;;;20.00;51.20;;;;;;4992068;28;20042;-61
2022/01/14 02:40:50;;;;;;;6.93;4.13;;;20.00;51.30;;;;;;4993856;28;20046;-62
2022/01/14 02:43:17;;;;;;;8.57;4.55;;;20.00;51.20;;;;;;4993611;28;20042;-62
2022/01/14 02:45:50;;;;;;;7.70;4.32;;;20.00;51.20;;;;;;4992911;28;20117;-61
2022/01/14 02:48:17;;;;;;;7.32;3.78;;;20.00;51.30;;;;;;4992195;28;20406;-62
2022/01/14 02:50:54;;;;;;;7.68;3.83;;;20.00;51.20;;;;;;4993483;28;20065;-62
2022/01/14 02:55:54;;;;;;;7.35;4.03;;;20.00;51.10;;;;;;4993932;28;20042;-61
2022/01/14 02:58:19;;;;;;;6.93;4.00;;;20.00;51.20;;;;;;4992455;28;20050;-61
2022/01/14 03:00:45;;;;;;;7.65;3.97;;;20.00;51.10;;;;;;4993911;28;20168;-61
2022/01/14 03:03:10;;;;;;;9.00;4.35;;;20.00;51.10;;;;;;4992049;28;20393;-61
2022/01/14 03:05:37;;;;;;;9.07;4.30;;;20.00;51.10;;;;;;4991236;28;20056;-61
2022/01/14 03:08:02;;;;;;;7.13;4.03;;;20.00;51.10;;;;;;4992565;28;20050;-61
2022/01/14 03:10:28;;;;;;;8.52;3.90;;;20.10;51.10;;;;;;4993223;28;20058;-61
2022/01/14 03:12:53;;;;;;;7.95;4.22;;;20.00;51.10;;;;;;4993197;28;20046;-61
2022/01/14 03:15:19;;;;;;;6.82;3.78;;;20.10;51.10;;;;;;4991889;28;20105;-61
2022/01/14 03:17:45;;;;;;;7.40;3.53;;;20.10;51.10;;;;;;4993225;28;20486;-61
2022/01/14 03:20:24;;;;;;;8.88;4.32;;;20.10;51.10;;;;;;4992590;28;20078;-61
2022/01/14 03:23:03;;;;;;;7.57;3.90;;;20.10;51.10;;;;;;4991893;28;20058;-62
2022/01/14 03:26:10;;;;;;;;;;;20.10;51.10;;;;;;4992348;28;20272;-61
2022/01/14 03:28:19;;;;;;;8.73;4.28;;;20.10;51.10;;;;;;4989569;28;19968;-61
2022/01/14 03:30:44;;;;;;;7.45;4.00;;;20.10;51.10;;;;;;4993005;28;20410;-61
2022/01/14 03:33:10;;;;;;;7.68;4.00;;;20.10;51.10;;;;;;4992640;28;20069;-61
2022/01/14 03:35:35;;;;;;;7.72;3.90;;;20.20;51.10;;;;;;4992846;28;20074;-61
2022/01/14 03:38:01;;;;;;;6.13;3.72;;;20.20;51.10;;;;;;4992671;28;20042;-61
2022/01/14 03:40:26;;;;;;;6.20;3.88;;;20.20;51.10;;;;;;4991868;28;20050;-62
2022/01/14 03:42:52;;;;;;;8.02;4.22;;;20.10;51.10;;;;;;4991876;28;20046;-61
2022/01/14 03:45:17;;;;;;;6.78;4.25;;;20.20;51.10;;;;;;4992837;28;20053;-61
2022/01/14 03:47:43;;;;;;;6.75;3.70;;;20.20;51.10;;;;;;4992609;28;20046;-61
2022/01/14 03:50:09;;;;;;;7.47;3.85;;;20.20;51.10;;;;;;4993342;28;20379;-61
2022/01/14 03:52:34;;;;;;;6.20;3.20;;;20.20;51.10;;;;;;4992829;28;20129;-61
2022/01/14 03:55:00;;;;;;;8.77;3.72;;;20.20;51.10;;;;;;4992268;28;20085;-62
2022/01/14 03:57:25;;;;;;;6.97;3.80;;;20.20;51.10;;;;;;4992868;28;20489;-61
2022/01/14 03:59:51;;;;;;;8.63;3.95;;;20.20;51.10;;;;;;4992876;28;20057;-61
2022/01/14 04:02:16;;;;;;;5.80;3.55;;;20.20;51.10;;;;;;4991873;28;20144;-61
2022/01/14 04:04:42;;;;;;;6.88;3.42;;;20.20;51.10;;;;;;4992857;28;20413;-61
2022/01/14 04:07:07;;;;;;;6.68;3.60;;;20.20;51.10;;;;;;4992773;28;20042;-61
2022/01/14 04:09:36;;;;;;;7.18;3.33;;;20.20;51.10;;;;;;4991816;28;20042;-61
2022/01/14 04:12:15;;;;;;;9.43;3.72;;;20.20;51.70;;;;;;4993080;28;20042;-61
2022/01/14 04:17:15;;;;;;;6.90;3.22;;;20.30;51.10;;;;;;4992002;28;20054;-62
2022/01/14 04:19:41;;;;;;;5.85;3.72;;;20.30;51.10;;;;;;4992947;28;20058;-61
2022/01/14 04:22:06;;;;;;;6.63;3.90;;;20.30;51.10;;;;;;4992572;28;20050;-61
2022/01/14 04:24:32;;;;;;;6.57;4.05;;;20.30;51.00;;;;;;4992118;28;20057;-62
2022/01/14 04:26:57;;;;;;;7.40;3.53;;;20.30;51.00;;;;;;4993011;28;20054;-61
2022/01/14 04:29:23;;;;;;;7.43;3.55;;;20.30;51.10;;;;;;4991777;28;20386;-61
2022/01/14 04:31:48;;;;;;;6.90;3.58;;;20.30;51.00;;;;;;4992828;28;20153;-61
2022/01/14 04:34:17;;;;;;;8.23;3.80;;;20.30;51.00;;;;;;4992541;28;20125;-61
2022/01/14 04:36:43;;;;;;;5.93;3.65;;;20.30;51.00;;;;;;4991894;28;20437;-61
2022/01/14 04:39:09;;;;;;;6.40;3.42;;;20.30;51.00;;;;;;4992817;28;20228;-61
2022/01/14 04:41:34;;;;;;;6.80;3.10;;;20.30;51.00;;;;;;4991922;28;20405;-61
2022/01/14 04:44:01;;;;;;;6.55;3.25;;;20.30;50.90;;;;;;4990886;28;20474;-61
2022/01/14 04:48:52;;;;;;;6.53;3.67;;;20.40;51.00;;;;;;4994646;28;20401;-61
2022/01/14 04:51:20;;;;;;;6.55;3.20;;;20.30;50.90;;;;;;4995084;28;20141;-62
2022/01/14 04:53:46;;;;;;;6.00;3.60;;;20.30;50.90;;;;;;4994753;28;20474;-62
2022/01/14 04:56:11;;;;;;;6.75;3.30;;;20.40;51.00;;;;;;4995735;28;20129;-62
2022/01/14 04:58:37;;;;;;;6.20;3.22;;;20.40;51.00;;;;;;4994981;28;20406;-61
2022/01/14 05:01:02;;;;;;;5.97;3.25;;;20.40;51.00;;;;;;4994361;28;20082;-61
2022/01/14 05:03:28;;;;;;;5.43;3.30;;;20.40;51.00;;;;;;4995247;28;20050;-61
2022/01/14 05:05:57;;;;;;;7.35;3.47;;;20.40;51.10;;;;;;4994117;28;20042;-61
2022/01/14 05:08:34;;;;;;;7.00;3.08;;;20.40;51.00;;;;;;4995240;28;20111;-61
2022/01/14 05:11:20;;;;;;;6.78;3.33;;;20.40;51.00;;;;;;4995407;28;20100;-61
2022/01/14 05:13:46;;;;;;;6.40;3.30;;;20.40;51.00;;;;;;4993810;28;20442;-61
2022/01/14 05:16:11;;;;;;;5.97;3.70;;;20.40;50.90;;;;;;4995268;28;20578;-61
2022/01/14 05:18:38;;;;;;;6.43;3.42;;;20.40;50.90;;;;;;4993385;28;20097;-61
2022/01/14 05:21:04;;;;;;;5.70;2.90;;;20.40;50.90;;;;;;4995753;28;20046;-61
2022/01/14 05:23:30;;;;;;;6.32;3.15;;;20.40;51.00;;;;;;4995072;28;20502;-61
2022/01/14 05:25:55;;;;;;;7.03;3.63;;;20.50;51.00;;;;;;4993282;28;20042;-61
2022/01/14 05:28:21;;;;;;;6.57;3.42;;;20.40;50.90;;;;;;4994901;28;20073;-61
2022/01/14 05:30:46;;;;;;;6.78;3.58;;;20.50;51.00;;;;;;4995304;28;20129;-61
2022/01/14 05:33:14;;;;;;;6.55;3.10;;;20.40;50.90;;;;;;4994177;28;20042;-61
2022/01/14 05:35:40;;;;;;;8.32;3.97;;;20.50;51.00;;;;;;4995449;28;20042;-61
2022/01/14 05:38:06;;;;;;;6.70;3.45;;;20.50;51.00;;;;;;4995176;28;20046;-61
2022/01/14 05:40:31;;;;;;;7.25;3.50;;;20.40;50.90;;;;;;4994112;28;20050;-61
2022/01/14 05:42:57;;;;;;;6.53;3.78;;;20.40;50.90;;;;;;4995287;28;20437;-61
2022/01/14 05:45:22;;;;;;;8.23;3.65;;;20.40;50.80;;;;;;4994739;28;20046;-61
2022/01/14 05:47:48;;;;;;;7.95;3.70;;;20.50;50.90;;;;;;4993020;28;20416;-62
2022/01/14 05:50:15;;;;;;;5.55;2.95;;;20.50;50.80;;;;;;4994718;28;20040;-61
2022/01/14 05:52:41;;;;;;;7.30;3.33;;;20.50;50.80;;;;;;4994927;28;20055;-62
2022/01/14 05:55:07;;;;;;;6.75;3.40;;;20.50;50.80;;;;;;4993844;28;20038;-61
2022/01/14 05:57:34;;;;;;;7.22;3.15;;;20.50;50.80;;;;;;4993659;28;20057;-61
2022/01/14 06:00:10;;;;;;;5.78;3.00;;;20.50;50.80;;;;;;4993645;28;20058;-61
2022/01/14 06:02:35;;;;;;;6.95;3.38;;;20.50;50.70;;;;;;4993939;28;20054;-61
2022/01/14 06:05:01;;;;;;;6.82;3.33;;;20.50;50.80;;;;;;4994620;28;20362;-62
2022/01/14 06:07:26;;;;;;;7.13;3.35;;;20.50;50.80;;;;;;4994604;28;20129;-61
2022/01/14 06:09:52;;;;;;;5.90;3.33;;;20.50;50.70;;;;;;4993846;28;20045;-61
2022/01/14 06:12:17;;;;;;;8.30;3.47;;;20.50;50.70;;;;;;4994341;28;20478;-61
2022/01/14 06:14:43;;;;;;;4.85;3.00;;;20.50;50.70;;;;;;4992725;28;20449;-61
2022/01/14 06:17:08;;;;;;;6.20;3.38;;;20.50;50.70;;;;;;4994374;28;20057;-62
2022/01/14 06:19:34;;;;;;;6.38;3.72;;;20.50;50.70;;;;;;4994027;28;20081;-61
2022/01/14 06:21:59;;;;;;;9.02;3.55;;;20.50;50.60;;;;;;4993231;28;20497;-62
2022/01/14 06:24:25;;;;;;;6.57;3.10;;;20.50;50.60;;;;;;4994038;28;20046;-61
2022/01/14 06:26:50;;;;;;;10.07;4.30;;;20.50;50.60;;;;;;4994294;28;20046;-61
2022/01/14 06:29:16;;;;;;;8.07;3.95;;;20.50;50.50;;;;;;4993315;28;20050;-61
2022/01/14 06:31:41;;;;;;;6.78;3.50;;;20.50;50.50;;;;;;4992931;28;20046;-60
2022/01/14 06:34:06;;;;;;;8.88;3.38;;;20.50;50.50;;;;;;4994242;28;20180;-61
2022/01/14 06:36:32;;;;;;;6.07;3.00;;;20.50;50.50;;;;;;4993216;28;20046;-61
2022/01/14 06:38:58;;;;;;;6.30;3.58;;;20.50;50.50;;;;;;4994172;28;20050;-61
2022/01/14 06:41:23;;;;;;;7.35;3.38;;;20.50;50.50;;;;;;4993270;28;20129;-61
2022/01/14 06:43:49;;;;;;;10.20;3.80;;;20.60;50.50;;;;;;4993248;28;20424;-61
2022/01/14 06:46:14;;;;;;;5.97;3.22;;;20.60;50.60;;;;;;4993849;28;20049;-61
2022/01/14 06:48:40;;;;;;;8.32;3.65;;;20.60;50.60;;;;;;4994083;28;20046;-61
2022/01/14 06:51:05;;;;;;;6.72;3.80;;;20.60;50.60;;;;;;4993003;28;20041;-61
2022/01/14 06:53:31;;;;;;;6.35;3.00;;;20.60;50.60;;;;;;4993391;28;20415;-61
2022/01/14 06:55:56;;;;;;;6.82;3.00;;;20.60;50.70;;;;;;4993785;28;20048;-62
2022/01/14 06:58:22;;;;;;;7.38;3.13;;;20.60;50.70;;;;;;5000051;28;20094;-61
2022/01/14 07:00:47;;;;;;;6.85;3.33;;;20.60;50.80;;;;;;4998954;28;20061;-63
2022/01/14 07:03:13;;;;;;;5.45;2.70;;;20.60;50.80;;;;;;4992957;28;20050;-62
2022/01/14 07:05:38;;;;;;;9.15;3.22;;;20.70;50.90;;;;;;4992561;28;20112;-61
2022/01/14 07:08:04;;;;;;;6.25;3.10;;;20.70;50.90;;;;;;4993831;28;20449;-62
2022/01/14 07:10:35;;;;;;;5.13;2.85;;;20.70;51.00;;;;;;4993055;28;20047;-62
2022/01/14 07:13:00;;;;;;;6.60;3.67;;;20.70;51.00;;;;;;4992777;28;20046;-61
2022/01/14 07:15:26;;;;;;;6.70;3.03;;;20.70;51.10;;;;;;4993234;28;20099;-61
2022/01/14 07:17:51;;;;;;;6.55;3.22;;;20.70;51.20;;;;;;4993259;28;20054;-61
2022/01/14 07:20:18;;;;;;;7.20;3.40;;;20.70;51.20;;;;;;4992120;28;20066;-61
2022/01/14 07:22:44;;;;;;;5.10;3.03;;;20.70;51.40;;;;;;4993509;28;20073;-61
2022/01/14 07:25:10;;;;;;;9.57;3.20;;;20.70;52.20;;;;;;4992267;28;20061;-61
2022/01/14 07:27:36;;;;;;;8.90;3.40;;;20.70;51.60;;;;;;4993428;28;20050;-60
2022/01/14 07:30:02;;;;;;;7.55;3.60;;;20.70;51.70;;;;;;4993630;28;20126;-60
2022/01/14 07:32:27;;;;;;;6.82;3.10;;;20.70;51.80;;;;;;4992283;28;20057;-60
2022/01/14 07:34:53;;;;;;;7.68;3.10;;;20.70;51.90;;;;;;4993150;28;20126;-60
2022/01/14 07:37:18;;;;;;;8.65;3.10;;;20.80;52.00;;;;;;4975191;28;20072;-60
2022/01/14 07:39:44;;;;;;;9.32;3.13;;;20.70;52.00;;;;;;4992244;28;20490;-60
2022/01/14 07:42:10;;;;;;;5.45;2.75;;;20.70;52.00;;;;;;4993236;28;20077;-60
2022/01/14 07:44:35;;;;;;;5.97;3.20;;;20.70;52.10;;;;;;4992696;28;20053;-60
2022/01/14 07:47:01;;;;;;;6.15;3.25;;;20.70;52.20;;;;;;4992177;28;20114;-60
2022/01/14 07:49:26;;;;;;;4.85;2.95;;;20.80;52.20;;;;;;4975317;28;20119;-60
2022/01/14 07:51:52;;;;;;;6.18;2.85;;;20.80;52.30;;;;;;4993131;28;20034;-60
2022/01/14 07:54:17;;;;;;;5.22;2.80;;;20.80;52.30;;;;;;4991834;28;20482;-60
2022/01/14 07:56:48;;;;;;;6.25;3.17;;;20.80;52.30;;;;;;4992889;28;20849;-60
2022/01/14 07:59:17;;;;;;;4.60;2.65;;;20.80;52.40;;;;;;4992572;28;20062;-59
2022/01/14 08:01:43;;;;;;;6.47;3.10;;;20.80;52.40;;;;;;5001255;28;20054;-59
2022/01/14 08:04:09;;;;;;;6.05;3.25;;;20.80;52.50;;;;;;5003482;28;20034;-59
2022/01/14 08:06:39;;;;;;;5.25;3.03;;;20.80;52.50;;;;;;4992538;28;20145;-61
2022/01/14 08:09:04;;;;;;;4.90;2.70;;;20.80;52.50;;;;;;4991755;28;20039;-61
2022/01/14 08:11:30;;;;;;;6.25;3.38;;;20.80;52.40;;;;;;4992567;28;20059;-60
2022/01/14 08:13:55;;;;;;;7.25;2.75;;;20.80;52.30;;;;;;4992852;28;20089;-60
2022/01/14 08:16:21;;;;;;;6.43;3.25;;;20.80;52.40;;;;;;4991714;28;20049;-60
2022/01/14 08:18:46;;;;;;;5.95;2.88;;;20.80;52.50;;;;;;4992788;28;20069;-59
2022/01/14 08:21:12;;;;;;;8.13;2.80;;;20.80;52.50;;;;;;4993475;28;20042;-60
2022/01/14 08:23:39;;;;;;;6.90;2.70;;;20.90;52.60;;;;;;5003361;28;20490;-61
2022/01/14 08:26:04;;;;;;;5.75;2.90;;;20.80;52.70;;;;;;5006873;28;20113;-60
2022/01/14 08:28:30;;;;;;;5.45;2.67;;;20.90;52.60;;;;;;4986668;28;20499;-61
2022/01/14 08:30:56;;;;;;;6.72;2.90;;;20.90;52.50;;;;;;5005934;28;20038;-59
2022/01/14 08:33:21;;;;;;;7.93;3.00;;;20.90;52.40;;;;;;5009086;28;20056;-60
2022/01/14 08:35:47;;;;;;;6.32;2.90;;;20.90;52.40;;;;;;5015273;28;20052;-59
2022/01/14 08:38:13;;;;;;;5.18;2.70;;;20.80;52.30;;;;;;5011350;28;20485;-60
2022/01/14 08:40:39;;;;;;;8.80;3.03;;;20.90;52.40;;;;;;5015122;28;20041;-60
2022/01/14 08:43:04;;;;;;;6.32;2.60;;;20.80;52.30;;;;;;5013824;28;20100;-59
2022/01/14 08:45:30;;;;;;;7.50;2.80;;;20.90;52.30;;;;;;5014826;28;20493;-59
2022/01/14 08:47:56;;;;;;;5.13;2.72;;;20.90;52.20;;;;;;5014653;28;20139;-59
2022/01/14 08:50:22;;;;;;;4.97;2.58;;;20.80;52.10;;;;;;5013701;28;20041;-59
2022/01/14 08:52:48;;;;;;;5.70;2.60;;;20.80;52.10;;;;;;5012818;28;20056;-59
2022/01/14 08:55:15;;;;;;;6.78;2.80;;;20.90;52.20;;;;;;4977812;28;20042;-59
2022/01/14 08:57:44;;;;;;;5.68;2.42;;;20.90;52.10;;;;;;4996740;28;20046;-59
2022/01/14 09:00:10;;;;;;;5.60;2.80;;;20.90;52.10;;;;;;5014218;28;20054;-60
2022/01/14 09:02:35;;;;;;;5.65;2.50;;;20.80;52.00;;;;;;5014827;28;20049;-60
2022/01/14 09:05:02;;;;;;;5.50;2.40;;;20.90;52.00;;;;;;4996857;28;20569;-60
2022/01/14 09:07:28;;;;;;;5.20;2.28;;;20.90;52.00;;;;;;5014707;28;20125;-60
2022/01/14 09:09:54;;;;;;;6.07;2.35;;;20.90;51.90;;;;;;5015868;28;20077;-60
2022/01/14 09:12:20;;;;;;;5.18;2.50;;;20.90;51.90;;;;;;5015244;28;20088;-61
2022/01/14 09:14:46;;;;;;;5.70;2.55;;;20.90;51.90;;;;;;5015107;28;20069;-60
2022/01/14 09:17:12;;;;;;;10.27;3.42;;;20.90;51.80;;;;;;5006274;28;20066;-58
2022/01/14 09:19:38;;;;;;;6.03;2.70;;;20.90;51.90;;;;;;5004384;28;20141;-59
2022/01/14 09:22:04;;;;;;;6.40;2.47;;;20.90;52.00;;;;;;5003595;28;20061;-60
2022/01/14 09:24:29;;;;;;;7.93;2.70;;;20.90;52.20;;;;;;4987904;28;20049;-59
2022/01/14 09:26:55;;;;;;;7.45;2.30;;;20.90;52.50;;;;;;5004019;28;20042;-59
2022/01/14 09:29:20;;;;;;;6.50;2.78;;;21.00;52.70;;;;;;5003606;28;20042;-59
2022/01/14 09:31:46;;;;;;;7.30;2.17;;;21.00;52.70;;;;;;5005072;28;20049;-59
2022/01/14 09:34:11;;;;;;;6.15;2.28;;;21.00;52.70;;;;;;5003179;28;20066;-59
2022/01/14 09:36:37;;;;;;;6.07;2.30;;;21.00;52.80;;;;;;5004095;28;20476;-59
2022/01/14 09:39:03;;;;;;;5.30;2.53;;;21.00;52.80;;;;;;5004708;28;20092;-60
2022/01/14 09:41:28;;;;;;;7.22;2.63;;;21.00;52.90;;;;;;5005002;28;20038;-60
2022/01/14 09:43:54;;;;;;;10.38;3.38;;;21.00;52.60;;;;;;5004070;28;20046;-59
2022/01/14 09:46:20;;;;;;;10.70;3.35;;;21.00;51.90;;;;;;5002960;28;20077;-59
2022/01/14 09:48:46;;;;;;;7.30;3.25;;;21.00;51.70;;;;;;5002994;28;20042;-59
2022/01/14 09:51:12;;;;;;;5.65;2.80;;;21.00;51.50;;;;;;4979559;28;20531;-59
2022/01/14 09:53:37;;;;;;;7.72;2.63;;;21.00;51.50;;;;;;4985433;28;20489;-59
2022/01/14 09:56:03;;;;;;;5.85;2.47;;;21.00;51.40;;;;;;4987769;28;20104;-59
2022/01/14 09:58:35;;;;;;;7.30;2.90;;;20.90;51.10;;;;;;5004696;28;20054;-59
2022/01/14 10:01:11;;;;;;;6.82;2.58;;;20.90;51.00;;;;;;5000908;28;20047;-59
2022/01/14 10:03:49;;;;;;;9.02;2.75;;;20.90;50.90;;;;;;5003105;28;20042;-59
2022/01/14 10:06:35;;;;;;;;;;;20.90;50.90;;;;;;5003464;28;20038;-59
2022/01/14 10:09:08;;;;;;;10.45;2.65;;;20.90;50.90;;;;;;4993086;28;19921;-59
2022/01/14 10:11:35;;;;;;;7.80;2.80;;;20.90;51.00;;;;;;4994340;28;20112;-59
2022/01/14 10:14:17;;;;;;;6.05;2.70;;;20.90;51.10;;;;;;4994306;28;20038;-59
2022/01/14 10:16:43;;;;;;;6.70;2.83;;;20.90;51.30;;;;;;4994571;28;20057;-59
2022/01/14 10:19:23;;;;;;;7.32;2.58;;;20.90;51.30;;;;;;4993967;28;20394;-58
2022/01/14 10:21:49;;;;;;;6.70;2.05;;;21.00;51.50;;;;;;4993638;28;20088;-59
2022/01/14 10:24:15;;;;;;;4.90;2.58;;;21.00;51.50;;;;;;4993845;28;20446;-59
2022/01/14 10:26:57;;;;;;;7.03;2.25;;;21.00;51.60;;;;;;4996725;28;20513;-59
2022/01/14 10:29:39;;;;;;;6.40;2.42;;;21.00;51.60;;;;;;5012037;28;20129;-59
2022/01/14 10:32:06;;;;;;;8.68;2.13;;;21.00;51.50;;;;;;4996235;28;20493;-59
2022/01/14 10:34:33;;;;;;;6.45;2.03;;;21.00;51.50;;;;;;5004607;28;20062;-59
2022/01/14 10:37:08;;;;;;;4.70;2.13;;;21.00;52.50;;;;;;4999225;28;20042;-58
2022/01/14 10:39:33;;;;;;;6.43;1.90;;;21.00;52.00;;;;;;4975831;28;20490;-59
2022/01/14 10:41:59;;;;;;;5.88;2.28;;;21.10;52.20;;;;;;4994900;28;20159;-60
2022/01/14 10:44:33;;;;;;;6.53;2.22;;;21.10;52.30;;;;;;4993647;28;20069;-59
2022/01/14 10:47:18;;;;;;;7.90;2.05;;;21.10;52.40;;;;;;4992916;28;20513;-59
2022/01/14 10:49:46;;;;;;;6.72;2.28;;;21.10;52.60;;;;;;4992949;28;20042;-59
2022/01/14 10:52:16;;;;;;;8.93;2.25;;;21.10;52.50;;;;;;4993621;28;20146;-59
2022/01/14 10:54:43;;;;;;;4.97;2.10;;;21.20;52.60;;;;;;5002616;28;20045;-59
2022/01/14 10:57:23;;;;;;;5.28;2.28;;;21.20;52.60;;;;;;5002009;28;20112;-59
2022/01/14 10:59:51;;;;;;;5.15;2.22;;;21.10;52.60;;;;;;5016916;28;20467;-59
2022/01/14 11:02:38;;;;;;;4.80;2.10;;;21.10;52.60;;;;;;5023424;28;20030;-59
2022/01/14 11:05:07;;;;;;;5.32;2.00;;;21.20;52.80;;;;;;5021421;28;20046;-59
2022/01/14 11:07:33;;;;;;;6.85;2.05;;;21.20;52.80;;;;;;5022807;28;20058;-59
2022/01/14 11:09:59;;;;;;;3.30;1.70;;;21.20;52.80;;;;;;5021199;28;20370;-59
2022/01/14 11:12:24;;;;;;;3.60;1.83;;;21.20;52.70;;;;;;5018824;28;20045;-59
2022/01/14 11:14:50;;;;;;;6.15;1.92;;;21.20;52.70;;;;;;5016819;28;20545;-59
2022/01/14 11:17:16;;;;;;;4.97;1.85;;;21.20;52.70;;;;;;5010132;28;20042;-59
2022/01/14 11:19:47;;;;;;;6.35;2.42;;;21.20;52.60;;;;;;5010779;28;20041;-59
2022/01/14 11:24:58;;;;;;;4.28;1.60;;;21.20;52.50;;;;;;5011803;28;20049;-59
2022/01/14 11:27:23;;;;;;;5.15;1.92;;;21.20;52.40;;;;;;5011397;28;20042;-59
2022/01/14 11:29:49;;;;;;;4.13;1.83;;;21.20;52.40;;;;;;5011620;28;20064;-59
2022/01/14 11:32:14;;;;;;;5.95;2.00;;;21.20;52.30;;;;;;5010918;28;20088;-61
2022/01/14 11:34:46;;;;;;;5.97;2.40;;;21.20;52.30;;;;;;4998677;28;20133;-59
2022/01/14 11:37:14;;;;;;;5.00;1.90;;;21.20;52.20;;;;;;5023222;28;20389;-59
2022/01/14 11:39:40;;;;;;;5.90;2.13;;;21.20;52.30;;;;;;5031228;28;20091;-59
2022/01/14 11:42:13;;;;;;;6.35;2.22;;;21.20;52.40;;;;;;5031140;28;20049;-59
2022/01/14 11:44:43;;;;;;;4.30;1.88;;;21.20;52.50;;;;;;5014339;28;20163;-59
2022/01/14 11:47:24;;;;;;;4.75;1.98;;;21.20;52.50;;;;;;5031117;28;20124;-59
2022/01/14 11:49:50;;;;;;;5.53;1.73;;;21.20;52.70;;;;;;5032270;28;20111;-59
2022/01/14 11:52:16;;;;;;;4.38;1.63;;;21.20;52.70;;;;;;5031731;28;20073;-59
2022/01/14 11:54:45;;;;;;;3.83;1.50;;;21.20;52.80;;;;;;5014442;28;20080;-59
2022/01/14 11:57:13;;;;;;;6.22;1.60;;;21.20;52.80;;;;;;5032656;28;20041;-59
2022/01/14 11:59:39;;;;;;;6.57;2.17;;;21.20;52.80;;;;;;5017688;28;20057;-59
2022/01/14 12:02:27;;;;;;;5.63;1.90;;;21.20;52.80;;;;;;5036368;28;20046;-59
2022/01/14 12:05:10;;;;;;;6.20;1.60;;;21.20;52.90;;;;;;5036235;28;20409;-59
2022/01/14 12:08:05;;;;;;;4.05;1.98;;;21.20;52.80;;;;;;5035359;28;20099;-59
2022/01/14 12:10:55;;;;;;;3.70;1.33;;;21.20;53.40;;;;;;5029150;28;20104;-60
2022/01/14 12:13:43;;;;;;;3.28;1.70;;;21.20;52.80;;;;;;5034965;28;20089;-59
2022/01/14 12:18:57;;;;;;;5.30;1.60;;;21.20;52.80;;;;;;5036288;28;20534;-61
2022/01/14 12:21:41;;;;;;;4.53;1.50;;;21.20;52.90;;;;;;5034952;28;20128;-59
2022/01/14 12:24:15;;;;;;;4.00;1.60;;;21.20;52.70;;;;;;5035751;28;20041;-60
2022/01/14 12:27:10;;;;;;;5.10;1.98;;;21.20;52.60;;;;;;5035789;28;20050;-59
2022/01/14 12:29:44;;;;;;;6.28;1.80;;;21.20;52.60;;;;;;5035155;28;20496;-59
2022/01/14 12:32:14;;;;;;;6.13;1.83;;;21.20;52.70;;;;;;5036065;28;20047;-59
2022/01/14 12:34:57;;;;;;;5.20;1.70;;;21.20;52.70;;;;;;5036944;28;20056;-59
2022/01/14 12:37:24;;;;;;;5.80;2.05;;;21.20;52.80;;;;;;5035461;28;20053;-59
2022/01/14 12:39:50;;;;;;;5.47;2.00;;;21.20;52.80;;;;;;5035663;28;20408;-59
2022/01/14 12:42:17;;;;;;;7.07;2.30;;;21.20;52.80;;;;;;5034586;28;20135;-59
2022/01/14 12:44:45;;;;;;;4.07;1.85;;;21.20;52.80;;;;;;5034573;28;20125;-59
2022/01/14 12:47:18;;;;;;;6.88;1.75;;;21.20;52.80;;;;;;5036145;28;20099;-59
2022/01/14 12:49:44;;;;;;;3.67;1.92;;;21.20;52.80;;;;;;5035094;28;20549;-59
2022/01/14 12:52:11;;;;;;;5.78;1.50;;;21.20;52.70;;;;;;5035561;28;20068;-59
2022/01/14 12:54:38;;;;;;;9.85;1.70;;;21.20;52.60;;;;;;5025358;28;20081;-60
2022/01/14 12:57:04;;;;;;;4.93;1.70;;;21.20;52.50;;;;;;5014926;28;20616;-60
2022/01/14 12:59:43;;;;;;;5.60;1.60;;;21.20;52.40;;;;;;5015019;28;20137;-59
2022/01/14 13:02:16;;;;;;;5.63;1.65;;;21.20;52.50;;;;;;5015735;28;20095;-60
2022/01/14 13:04:42;;;;;;;6.85;2.00;;;21.20;52.60;;;;;;4998063;28;20500;-60
2022/01/14 13:07:08;;;;;;;7.32;2.03;;;21.20;52.60;;;;;;5015556;28;20073;-60
2022/01/14 13:09:39;;;;;;;4.28;1.75;;;21.20;52.70;;;;;;5015146;28;20393;-59
2022/01/14 13:12:05;;;;;;;5.28;1.70;;;21.20;52.80;;;;;;4998034;28;20099;-59
2022/01/14 13:14:52;;;;;;;4.57;1.83;;;21.20;52.80;;;;;;5014875;28;20382;-59
2022/01/14 13:17:26;;;;;;;3.47;1.50;;;21.10;52.80;;;;;;5014151;28;20041;-58
2022/01/14 13:20:04;;;;;;;3.55;1.30;;;21.20;52.90;;;;;;5015413;28;20087;-59
2022/01/14 13:22:31;;;;;;;5.45;2.13;;;21.10;52.80;;;;;;5014928;28;20046;-59
2022/01/14 13:24:58;;;;;;;4.70;1.58;;;21.10;52.80;;;;;;5014376;28;20095;-60